createdAt,value
2018-05-23T00:00:15.562Z,99.70
2018-05-23T00:02:43.765Z,96.00
2018-05-23T00:05:12.904Z,96.30
2018-05-23T00:07:41.149Z,97.30
2018-05-23T00:10:09.263Z,96.70
2018-05-23T00:12:37.392Z,97.60
2018-05-23T00:15:05.531Z,98.00
2018-05-23T00:17:34.097Z,97.30
2018-05-23T00:20:02.271Z,97.50
2018-05-23T00:22:30.400Z,97.20
2018-05-23T00:24:58.518Z,97.60
2018-05-23T00:27:26.734Z,98.40
2018-05-23T00:29:55.266Z,97.30
2018-05-23T00:32:23.438Z,96.90
2018-05-23T00:34:51.566Z,96.80
2018-05-23T00:37:25.440Z,97.30
2018-05-23T00:39:53.803Z,97.30
2018-05-23T00:42:28.140Z,96.60
2018-05-23T00:44:57.173Z,96.00
2018-05-23T00:47:25.440Z,97.10
2018-05-23T00:49:54.477Z,97.30
2018-05-23T00:52:22.848Z,97.60
2018-05-23T00:55:03.090Z,98.00
2018-05-23T00:57:32.062Z,97.20
2018-05-23T01:00:00.283Z,95.50
2018-05-23T01:02:29.067Z,96.60
2018-05-23T01:04:57.196Z,97.40
2018-05-23T01:07:25.370Z,98.00
2018-05-23T01:09:53.492Z,98.20
2018-05-23T01:12:21.608Z,98.60
2018-05-23T01:14:49.718Z,99.20
2018-05-23T01:17:21.552Z,98.70
2018-05-23T01:19:49.700Z,97.90
2018-05-23T01:22:17.880Z,97.60
2018-05-23T01:24:46.006Z,97.80
2018-05-23T01:27:14.246Z,97.30
2018-05-23T01:29:42.358Z,95.60
2018-05-23T01:32:11.014Z,96.40
2018-05-23T01:34:39.923Z,97.60
2018-05-23T01:37:08.184Z,98.60
2018-05-23T01:39:37.411Z,99.70
2018-05-23T01:42:06.282Z,99.60
2018-05-23T01:44:35.190Z,97.70
2018-05-23T01:47:06.799Z,97.20
2018-05-23T01:49:34.914Z,98.40
2018-05-23T01:52:03.748Z,97.40
2018-05-23T01:54:31.921Z,97.20
2018-05-23T01:57:00.223Z,98.50
2018-05-23T01:59:28.248Z,99.70
2018-05-23T02:01:56.370Z,99.90
2018-05-23T02:04:25.508Z,99.90
2018-05-23T02:06:53.637Z,99.90
2018-05-23T02:09:22.528Z,99.90
2018-05-23T02:11:50.641Z,99.10
2018-05-23T02:14:18.783Z,99.20
2018-05-23T02:16:50.847Z,99.90
2018-05-23T02:19:19.740Z,99.90
2018-05-23T02:21:47.996Z,99.90
2018-05-23T02:24:16.099Z,99.90
2018-05-23T02:26:44.373Z,99.90
2018-05-23T02:29:13.255Z,99.90
2018-05-23T02:31:42.004Z,99.90
2018-05-23T02:34:10.116Z,99.90
2018-05-23T02:36:39.108Z,99.30
2018-05-23T02:39:07.284Z,99.40
2018-05-23T02:41:35.432Z,99.40
2018-05-23T02:44:03.579Z,99.90
2018-05-23T02:46:31.718Z,99.90
2018-05-23T02:49:00.599Z,99.90
2018-05-23T02:51:29.489Z,99.90
2018-05-23T02:53:58.373Z,99.90
2018-05-23T02:56:27.538Z,99.90
2018-05-23T02:58:56.348Z,99.90
2018-05-23T03:01:24.536Z,99.90
2018-05-23T03:03:52.687Z,99.90
2018-05-23T03:06:20.803Z,99.90
2018-05-23T03:08:48.926Z,99.10
2018-05-23T03:11:17.045Z,98.80
2018-05-23T03:13:45.192Z,99.00
2018-05-23T03:16:13.326Z,98.10
2018-05-23T03:18:41.438Z,98.60
2018-05-23T03:21:09.584Z,98.30
2018-05-23T03:23:37.703Z,98.50
2018-05-23T03:26:06.584Z,99.90
2018-05-23T03:28:35.585Z,99.90
2018-05-23T03:31:04.807Z,99.70
2018-05-23T03:33:32.923Z,99.90
2018-05-23T03:36:01.042Z,99.60
2018-05-23T03:38:29.279Z,98.90
2018-05-23T03:40:57.428Z,98.40
2018-05-23T03:43:25.570Z,98.70
2018-05-23T03:45:53.676Z,99.30
2018-05-23T03:48:22.782Z,99.90
2018-05-23T03:50:50.899Z,99.90
2018-05-23T03:53:19.037Z,99.90
2018-05-23T03:55:47.167Z,99.90
2018-05-23T03:58:15.382Z,98.30
2018-05-23T04:03:53.260Z,98.60
2018-05-23T04:06:33.247Z,99.90
2018-05-23T04:09:01.845Z,99.90
2018-05-23T04:11:30.017Z,99.70
2018-05-23T04:13:58.155Z,99.90
2018-05-23T04:16:26.285Z,99.70
2018-05-23T04:18:54.384Z,99.70
2018-05-23T04:21:22.502Z,99.90
2018-05-23T04:23:50.644Z,99.90
2018-05-23T04:26:18.751Z,99.10
2018-05-23T04:28:46.935Z,98.60
2018-05-23T04:31:15.662Z,98.80
2018-05-23T04:33:43.787Z,98.60
2018-05-23T04:36:11.917Z,98.10
2018-05-23T04:38:40.053Z,98.20
2018-05-23T04:41:08.184Z,98.60
2018-05-23T04:43:36.332Z,98.60
2018-05-23T04:46:04.455Z,98.10
2018-05-23T04:48:39.037Z,97.70
2018-05-23T04:51:07.127Z,97.80
2018-05-23T04:53:40.604Z,97.50
2018-05-23T04:56:15.052Z,96.60
2018-05-23T04:58:43.313Z,96.90
2018-05-23T05:01:11.421Z,97.50
2018-05-23T05:03:39.549Z,98.00
2018-05-23T05:06:08.460Z,96.70
2018-05-23T05:08:36.610Z,97.00
2018-05-23T05:11:04.733Z,96.10
2018-05-23T05:13:32.871Z,95.50
2018-05-23T05:16:00.988Z,95.50
2018-05-23T05:18:35.070Z,94.10
2018-05-23T05:21:03.223Z,94.30
2018-05-23T05:23:31.342Z,94.10
2018-05-23T05:25:59.462Z,95.30
2018-05-23T05:28:27.694Z,95.40
2018-05-23T05:30:58.882Z,93.60
2018-05-23T05:33:27.539Z,93.20
2018-05-23T05:35:55.717Z,92.90
2018-05-23T05:38:24.719Z,94.20
2018-05-23T05:40:53.680Z,94.60
2018-05-23T05:43:21.823Z,95.30
2018-05-23T05:45:49.967Z,95.70
2018-05-23T05:48:19.025Z,95.80
2018-05-23T05:50:47.588Z,94.80
2018-05-23T05:53:15.723Z,95.30
2018-05-23T05:55:43.864Z,93.30
2018-05-23T05:58:12.953Z,94.20
2018-05-23T06:00:41.093Z,93.90
2018-05-23T06:03:09.267Z,94.50
2018-05-23T06:05:37.984Z,92.60
2018-05-23T06:08:06.101Z,92.90
2018-05-23T06:10:34.223Z,93.40
2018-05-23T06:13:02.353Z,92.40
2018-05-23T06:15:30.468Z,92.60
2018-05-23T06:17:58.595Z,92.50
2018-05-23T06:20:26.725Z,93.00
2018-05-23T06:22:55.620Z,93.10
2018-05-23T06:25:24.506Z,92.50
2018-05-23T06:27:52.682Z,91.70
2018-05-23T06:30:20.869Z,91.90
2018-05-23T06:32:48.954Z,90.80
2018-05-23T06:35:17.830Z,91.70
2018-05-23T06:37:46.870Z,90.70
2018-05-23T06:40:15.689Z,90.30
2018-05-23T06:42:43.864Z,88.70
2018-05-23T06:45:12.014Z,87.90
2018-05-23T06:47:41.532Z,85.40
2018-05-23T06:50:09.663Z,84.20
2018-05-23T06:52:37.792Z,89.00
2018-05-23T06:55:05.923Z,88.80
2018-05-23T06:57:35.687Z,89.30
2018-05-23T07:00:04.247Z,89.40
2018-05-23T07:02:32.365Z,85.80
2018-05-23T07:05:01.257Z,83.40
2018-05-23T07:07:29.407Z,81.00
2018-05-23T07:09:57.524Z,80.40
2018-05-23T07:12:26.543Z,80.40
2018-05-23T07:14:54.660Z,77.00
2018-05-23T07:17:23.803Z,73.50
2018-05-23T07:19:51.925Z,69.00
2018-05-23T07:22:20.055Z,68.90
2018-05-23T07:24:48.202Z,69.60
2018-05-23T07:27:16.449Z,71.90
2018-05-23T07:29:44.597Z,75.80
2018-05-23T07:32:13.391Z,75.20
2018-05-23T07:34:41.729Z,73.80
2018-05-23T07:37:10.029Z,75.00
2018-05-23T07:39:40.682Z,75.80
2018-05-23T07:42:13.940Z,73.90
2018-05-23T07:44:43.371Z,71.30
2018-05-23T07:47:15.039Z,70.40
2018-05-23T07:49:44.398Z,69.00
2018-05-23T07:52:14.723Z,68.20
2018-05-23T07:54:44.058Z,69.70
2018-05-23T07:57:14.466Z,67.60
2018-05-23T07:59:43.974Z,65.70
2018-05-23T08:02:15.196Z,62.70
2018-05-23T08:04:43.382Z,63.20
2018-05-23T08:07:13.967Z,59.10
2018-05-23T08:09:44.393Z,61.10
2018-05-23T08:12:13.746Z,63.10
2018-05-23T08:14:42.421Z,60.20
2018-05-23T08:17:11.716Z,63.20
2018-05-23T08:19:49.454Z,61.70
2018-05-23T08:22:17.620Z,63.60
2018-05-23T08:24:50.659Z,64.00
2018-05-23T08:27:23.297Z,59.20
2018-05-23T08:29:54.205Z,59.70
2018-05-23T08:32:23.549Z,57.40
2018-05-23T08:34:53.091Z,58.10
2018-05-23T08:37:23.979Z,59.30
2018-05-23T08:39:52.533Z,59.80
2018-05-23T08:42:21.202Z,60.90
2018-05-23T08:44:50.122Z,60.70
2018-05-23T08:47:26.495Z,58.80
2018-05-23T08:50:01.199Z,63.30
2018-05-23T08:52:30.200Z,66.10
2018-05-23T09:00:06.887Z,63.40
2018-05-23T09:02:38.372Z,61.80
2018-05-23T09:05:07.818Z,61.80
2018-05-23T09:07:39.187Z,62.40
2018-05-23T09:12:38.064Z,60.10
2018-05-23T09:15:08.744Z,58.60
2018-05-23T09:17:39.074Z,57.30
2018-05-23T09:20:08.065Z,53.60
2018-05-23T09:22:36.398Z,56.90
2018-05-23T09:25:06.494Z,59.50
2018-05-23T09:27:35.693Z,60.10
2018-05-23T09:30:04.605Z,58.30
2018-05-23T09:32:33.220Z,58.70
2018-05-23T09:35:01.538Z,54.20
2018-05-23T09:37:30.641Z,57.20
2018-05-23T09:39:58.774Z,57.70
2018-05-23T09:42:28.149Z,60.40
2018-05-23T09:44:56.657Z,64.80
2018-05-23T09:47:31.028Z,66.10
2018-05-23T09:52:32.479Z,60.10
2018-05-23T09:55:01.918Z,56.20
2018-05-23T09:57:35.339Z,52.50
2018-05-23T10:00:04.943Z,53.70
2018-05-23T10:02:43.791Z,56.20
2018-05-23T10:05:13.024Z,56.40
2018-05-23T10:07:42.014Z,60.20
2018-05-23T10:10:10.620Z,62.20
2018-05-23T10:12:40.679Z,55.10
2018-05-23T10:15:09.869Z,53.90
2018-05-23T10:17:45.217Z,52.20
2018-05-23T10:20:13.522Z,57.90
2018-05-23T10:22:41.659Z,54.50
2018-05-23T10:25:11.606Z,56.30
2018-05-23T10:27:42.679Z,57.20
2018-05-23T10:30:13.164Z,57.70
2018-05-23T10:35:14.803Z,60.90
2018-05-23T10:37:45.028Z,55.70
2018-05-23T10:40:16.429Z,53.50
2018-05-23T10:42:46.158Z,55.40
2018-05-23T10:45:15.111Z,52.60
2018-05-23T10:47:46.461Z,53.30
2018-05-23T10:50:14.549Z,55.20
2018-05-23T10:52:43.247Z,51.40
2018-05-23T10:55:12.812Z,48.50
2018-05-23T10:58:00.903Z,44.30
2018-05-23T11:00:35.282Z,38.90
2018-05-23T11:03:04.712Z,37.40
2018-05-23T11:05:46.975Z,38.30
2018-05-23T11:08:23.572Z,35.90
2018-05-23T11:10:56.288Z,39.50
2018-05-23T11:13:25.474Z,35.20
2018-05-23T11:15:57.846Z,33.60
2018-05-23T11:18:42.942Z,36.00
2018-05-23T11:21:11.103Z,34.40
2018-05-23T11:23:39.610Z,36.30
2018-05-23T11:26:07.735Z,38.90
2018-05-23T11:28:35.845Z,36.70
2018-05-23T11:31:03.954Z,39.30
2018-05-23T11:33:32.077Z,37.60
2018-05-23T11:36:01.035Z,38.20
2018-05-23T11:38:33.120Z,36.00
2018-05-23T11:41:01.379Z,36.80
2018-05-23T11:43:29.507Z,37.40
2018-05-23T11:45:57.628Z,36.50
2018-05-23T11:48:25.879Z,41.00
2018-05-23T11:50:54.901Z,38.80
2018-05-23T11:53:23.495Z,42.70
2018-05-23T11:55:51.637Z,42.60
2018-05-23T11:58:27.797Z,43.40
2018-05-23T12:00:57.025Z,42.70
2018-05-23T12:03:25.152Z,42.50
2018-05-23T12:05:53.309Z,40.20
2018-05-23T12:08:22.475Z,41.40
2018-05-23T12:10:50.932Z,42.30
2018-05-23T12:13:19.046Z,44.90
2018-05-23T12:15:47.948Z,37.80
2018-05-23T12:18:17.014Z,37.10
2018-05-23T12:20:45.162Z,36.90
2018-05-23T12:23:13.302Z,36.20
2018-05-23T12:25:41.437Z,35.60
2018-05-23T12:28:09.723Z,38.40
2018-05-23T12:30:38.707Z,40.10
2018-05-23T12:33:07.250Z,34.30
2018-05-23T12:35:35.403Z,35.90
2018-05-23T12:38:03.641Z,34.30
2018-05-23T12:40:31.767Z,34.80
2018-05-23T12:43:00.009Z,34.30
2018-05-23T12:45:28.907Z,33.30
2018-05-23T12:48:00.224Z,30.60
2018-05-23T12:50:28.517Z,33.00
2018-05-23T12:52:56.688Z,30.20
2018-05-23T12:55:24.820Z,30.90
2018-05-23T12:57:55.031Z,32.10
2018-05-23T13:00:23.145Z,33.20
2018-05-23T13:02:51.272Z,32.90
2018-05-23T13:05:19.398Z,33.20
2018-05-23T13:07:47.778Z,30.00
2018-05-23T13:10:16.670Z,28.80
2018-05-23T13:12:45.620Z,28.80
2018-05-23T13:15:13.698Z,29.30
2018-05-23T13:17:42.811Z,29.10
2018-05-23T13:20:10.988Z,30.70
2018-05-23T13:22:39.110Z,27.70
2018-05-23T13:25:07.469Z,26.10
2018-05-23T13:27:35.583Z,24.60
2018-05-23T13:30:03.699Z,20.60
2018-05-23T13:32:32.621Z,19.40
2018-05-23T13:35:01.517Z,17.20
2018-05-23T13:37:30.400Z,15.70
2018-05-23T13:39:58.524Z,14.60
2018-05-23T13:42:26.662Z,16.10
2018-05-23T13:44:54.791Z,16.10
2018-05-23T13:47:23.900Z,17.30
2018-05-23T13:49:52.221Z,18.20
2018-05-23T13:52:20.356Z,15.50
2018-05-23T13:54:48.474Z,11.30
2018-05-23T13:57:17.697Z,11.10
2018-05-23T13:59:46.384Z,8.80
2018-05-23T14:02:14.961Z,9.80
2018-05-23T14:04:43.055Z,8.40
2018-05-23T14:07:11.193Z,8.20
2018-05-23T14:09:39.333Z,8.70
2018-05-23T14:12:07.822Z,13.50
2018-05-23T14:14:35.951Z,14.40
2018-05-23T14:17:04.106Z,16.30
2018-05-23T14:19:32.215Z,17.60
2018-05-23T14:22:00.326Z,19.90
2018-05-23T14:24:28.443Z,16.90
2018-05-23T14:26:56.604Z,17.40
2018-05-23T14:29:24.719Z,10.60
2018-05-23T14:31:52.840Z,8.40
2018-05-23T14:34:21.920Z,6.70
2018-05-23T14:36:50.393Z,8.10
2018-05-23T14:39:24.371Z,7.20
2018-05-23T14:44:53.911Z,4.30
2018-05-23T15:05:45.619Z,2.20
2018-05-23T15:08:21.682Z,3.00
2018-05-23T15:10:49.766Z,2.90
2018-05-23T15:13:18.814Z,3.20
2018-05-23T15:15:47.286Z,5.60
2018-05-23T15:30:19.627Z,8.50
2018-05-23T15:32:55.003Z,6.50
2018-05-23T15:35:25.773Z,5.60
2018-05-23T15:43:47.177Z,3.80
2018-05-23T15:46:15.277Z,2.90
2018-05-23T15:48:43.404Z,3.10
2018-05-23T15:51:12.426Z,4.30
2018-05-23T15:53:40.459Z,5.60
2018-05-23T15:56:09.352Z,7.60
2018-05-23T15:58:37.488Z,9.10
2018-05-23T16:01:05.604Z,10.40
2018-05-23T16:03:33.724Z,10.50
2018-05-23T16:06:01.846Z,9.10
2018-05-23T16:08:29.969Z,10.00
2018-05-23T16:10:59.219Z,11.30
2018-05-23T16:13:27.317Z,9.10
2018-05-23T16:16:01.623Z,8.30
2018-05-23T16:18:29.742Z,8.20
2018-05-23T16:20:57.825Z,7.40
2018-05-23T16:23:26.722Z,8.10
2018-05-23T16:25:54.840Z,6.50
2018-05-23T16:28:23.030Z,5.30
2018-05-23T16:30:51.133Z,6.00
2018-05-23T16:33:19.280Z,7.40
2018-05-23T16:35:48.375Z,7.40
2018-05-23T16:38:20.266Z,10.40
2018-05-23T16:40:48.421Z,10.40
2018-05-23T16:43:18.253Z,12.60
2018-05-23T16:45:46.415Z,11.80
2018-05-23T16:48:14.583Z,10.70
2018-05-23T16:50:43.414Z,10.70
2018-05-23T16:53:15.057Z,9.90
2018-05-23T16:55:45.066Z,12.80
2018-05-23T16:58:20.435Z,14.00
2018-05-23T17:00:49.300Z,13.90
2018-05-23T17:03:19.335Z,13.70
2018-05-23T17:05:47.447Z,14.30
2018-05-23T17:08:17.700Z,15.30
2018-05-23T17:10:47.046Z,15.70
2018-05-23T17:13:16.517Z,16.70
2018-05-23T17:15:46.369Z,15.00
2018-05-23T17:18:14.983Z,12.80
2018-05-23T17:20:44.037Z,12.10
2018-05-23T17:23:12.767Z,12.20
2018-05-23T17:25:40.893Z,11.30
2018-05-23T17:28:09.112Z,10.20
2018-05-23T17:30:37.256Z,10.30
2018-05-23T17:33:05.384Z,11.90
2018-05-23T17:35:33.495Z,14.20
2018-05-23T17:38:05.295Z,14.60
2018-05-23T17:40:33.423Z,16.60
2018-05-23T17:43:02.656Z,18.50
2018-05-23T17:45:30.801Z,20.40
2018-05-23T17:47:59.583Z,21.50
2018-05-23T17:50:28.495Z,22.80
2018-05-23T17:52:56.630Z,23.40
2018-05-23T17:55:24.753Z,24.40
2018-05-23T17:57:52.943Z,25.40
2018-05-23T18:00:22.620Z,26.00
2018-05-23T18:02:50.723Z,25.40
2018-05-23T18:05:18.858Z,25.70
2018-05-23T18:07:47.095Z,24.70
2018-05-23T18:10:15.224Z,23.90
2018-05-23T18:12:43.399Z,22.80
2018-05-23T18:15:12.676Z,21.80
2018-05-23T18:17:40.849Z,20.90
2018-05-23T18:20:08.906Z,22.30
2018-05-23T18:22:37.047Z,22.70
2018-05-23T18:25:05.565Z,25.10
2018-05-23T18:27:33.705Z,26.20
2018-05-23T18:30:01.873Z,29.10
2018-05-23T18:32:30.711Z,32.30
2018-05-23T18:34:58.855Z,35.00
2018-05-23T18:37:27.830Z,36.10
2018-05-23T18:39:55.972Z,37.00
2018-05-23T18:42:24.080Z,37.60
2018-05-23T18:44:52.198Z,37.50
2018-05-23T18:47:21.805Z,40.50
2018-05-23T18:49:49.941Z,43.00
2018-05-23T18:52:18.077Z,43.90
2018-05-23T18:54:47.060Z,45.10
2018-05-23T18:57:15.284Z,45.90
2018-05-23T18:59:43.441Z,46.40
2018-05-23T19:02:11.603Z,48.60
2018-05-23T19:04:39.742Z,50.60
2018-05-23T19:07:07.995Z,52.80
2018-05-23T19:09:36.116Z,51.90
2018-05-23T19:12:04.265Z,53.70
2018-05-23T19:14:32.404Z,56.00
2018-05-23T19:17:00.667Z,56.00
2018-05-23T19:19:28.819Z,57.50
2018-05-23T19:21:57.763Z,60.00
2018-05-23T19:24:25.889Z,59.90
2018-05-23T19:26:54.023Z,60.00
2018-05-23T19:29:22.155Z,61.30
2018-05-23T19:31:51.054Z,61.30
2018-05-23T19:34:19.284Z,62.70
2018-05-23T19:36:49.781Z,63.50
2018-05-23T19:39:17.911Z,64.10
2018-05-23T19:41:46.037Z,64.90
2018-05-23T19:44:14.160Z,61.70
2018-05-23T19:46:42.454Z,60.60
2018-05-23T19:49:10.565Z,65.00
2018-05-23T19:51:38.682Z,59.70
2018-05-23T19:54:06.808Z,63.60
2018-05-23T19:56:34.980Z,62.40
2018-05-23T19:59:03.082Z,63.90
2018-05-23T20:01:31.943Z,71.40
2018-05-23T20:04:00.074Z,74.50
2018-05-23T20:06:30.905Z,77.00
2018-05-23T20:08:59.033Z,74.60
2018-05-23T20:11:27.147Z,72.80
2018-05-23T20:13:55.338Z,73.10
2018-05-23T20:16:23.397Z,78.30
2018-05-23T20:18:51.522Z,78.90
2018-05-23T20:21:19.634Z,82.50
2018-05-23T20:23:47.762Z,82.80
2018-05-23T20:26:15.879Z,83.70
2018-05-23T20:28:44.146Z,83.30
2018-05-23T20:31:12.322Z,84.90
2018-05-23T20:33:40.439Z,85.20
2018-05-23T20:36:08.558Z,83.40
2018-05-23T20:38:36.689Z,80.20
2018-05-23T20:41:04.820Z,78.90
2018-05-23T20:43:33.060Z,80.00
2018-05-23T20:46:01.171Z,83.10
2018-05-23T20:48:29.289Z,84.60
2018-05-23T20:50:57.392Z,87.70
2018-05-23T20:53:25.514Z,90.20
2018-05-23T20:55:53.642Z,90.90
2018-05-23T20:58:21.945Z,91.20
2018-05-23T21:00:50.026Z,91.40
2018-05-23T21:03:18.904Z,90.80
2018-05-23T21:05:47.134Z,88.30
2018-05-23T21:08:17.196Z,87.40
2018-05-23T21:10:45.324Z,86.70
2018-05-23T21:13:13.434Z,89.00
2018-05-23T21:15:41.604Z,89.10
2018-05-23T21:18:12.665Z,89.90
2018-05-23T21:20:40.778Z,90.10
2018-05-23T21:23:08.887Z,89.90
2018-05-23T21:25:37.013Z,89.50
2018-05-23T21:28:06.455Z,89.30
2018-05-23T21:30:35.119Z,85.70
2018-05-23T21:33:05.949Z,85.10
2018-05-23T21:35:34.340Z,86.30
2018-05-23T21:38:03.525Z,88.80
2018-05-23T21:40:31.634Z,88.10
2018-05-23T21:42:59.760Z,90.60
2018-05-23T21:50:30.352Z,90.40
2018-05-23T21:52:58.996Z,89.30
2018-05-23T21:55:27.908Z,90.10
2018-05-23T21:57:56.464Z,90.80
2018-05-23T22:02:56.345Z,91.30
2018-05-23T22:05:24.454Z,92.10
2018-05-23T22:07:56.313Z,92.80
2018-05-23T22:10:24.426Z,92.40
2018-05-23T22:12:54.506Z,91.70
2018-05-23T22:15:22.642Z,93.30
2018-05-23T22:17:51.882Z,93.00
2018-05-23T22:20:20.005Z,93.60
2018-05-23T22:22:48.200Z,92.80
2018-05-23T22:25:16.304Z,92.90
2018-05-23T22:27:48.261Z,92.50
2018-05-23T22:30:17.671Z,91.40
2018-05-23T22:32:49.335Z,90.50
2018-05-23T22:35:17.912Z,90.30
2018-05-23T22:37:47.005Z,91.60
2018-05-23T22:40:15.099Z,92.00
2018-05-23T22:42:43.620Z,92.40
2018-05-23T22:45:11.882Z,93.30
2018-05-23T22:47:41.023Z,95.00
2018-05-23T22:50:09.153Z,95.90
2018-05-23T22:52:37.288Z,95.00
2018-05-23T22:55:06.203Z,95.30
2018-05-23T22:57:37.823Z,96.10
2018-05-23T23:00:05.982Z,97.10
2018-05-23T23:02:34.177Z,97.50
2018-05-23T23:05:02.298Z,96.50
2018-05-23T23:07:32.368Z,96.70
2018-05-23T23:10:00.534Z,97.00
2018-05-23T23:12:28.711Z,96.20
2018-05-23T23:14:56.817Z,92.40
2018-05-23T23:17:25.368Z,91.60
2018-05-23T23:19:53.474Z,92.20
2018-05-23T23:22:33.674Z,92.70
2018-05-23T23:25:01.829Z,93.40
2018-05-23T23:27:30.037Z,95.40
2018-05-23T23:29:58.163Z,94.70
2018-05-23T23:32:26.357Z,93.80
2018-05-23T23:34:55.564Z,95.60
2018-05-23T23:37:23.773Z,95.40
2018-05-23T23:39:51.899Z,95.50
2018-05-23T23:42:20.019Z,94.80
2018-05-23T23:44:48.138Z,94.50
2018-05-23T23:47:23.374Z,94.60
2018-05-23T23:49:58.930Z,94.50
2018-05-23T23:52:27.051Z,92.70
2018-05-23T23:54:59.555Z,93.40
2018-05-23T23:57:27.787Z,93.50
2018-05-23T23:59:55.899Z,93.30
